KSLN/SLN METAR and TAF weather

Enter ICAO airport designator
Station Type Date Time Source
KSLN METAR 2019/06/16 19:53 UTC NOAA

KSLN 161953Z 33011KT 10SM CLR 29/12 A2988 RMK AO2 SLP103 T02940117 $


Station Type Date Time Source
KSLN Decoded METAR 2019/06/16 19:53 UTC NOAA

SALINA MUNICIPAL AIRPORT, KS, United States (KSLN) 38-47N 97-39W 385M
Jun 16, 2019 - 03:53 PM EDT / 2019.06.16 1953 UTC
Wind: from the NNW (330 degrees) at 13 MPH (11 KT):0
Visibility: 10 mile(s):0
Sky conditions: clear
Temperature: 84.9 F (29.4 C)
Dew Point: 53.1 F (11.7 C)
Relative Humidity: 33%
Pressure (altimeter): 29.88 in. Hg (1011 hPa)
ob: KSLN 161953Z 33011KT 10SM CLR 29/12 A2988 RMK AO2 SLP103 T02940117
cycle: 20

Station Type Date Time Source
KSLN TAF 2019/06/16 18:54 UTC NOAA

TAF KSLN 161752Z 1618/1718 02008KT P6SM FEW040 BKN200
FM170100 04008KT P6SM SCT100
FM171600 07006KT P6SM SCT150

Example: see airport list